SBURSBUL

Guest
Details From SBUR - Uberaba
To SBUL - Ten Cel Av Cesar Bombonato
Flight Number -
Tags Routegen Generated
Created
Modified
Stats Distance 56 nm / 103 km
Max Altitude 100 ft / 30 m
Waypoints 8
Social Downloads 3
Likes 0
Share

Download

Looking for another format? Having issues loading an existing format? Contact us
Advertisement - Login to hide

Notes

Departing runway 32 SBUR. Arriving runway 2 SBUL.

Route

SBUR -19.70_-048.01 -19.64_-048.02 -19.36_-048.13 -19.07_-048.24 -19.02_-048.26 -18.96_-048.26 SBUL

ID Type Via Altitude (ft/m) Position (lat/lon) Dist (leg/tot) Name
O SBUR APT - 0 / 0 -19.75819 / -47.96911 - / 0 nm
-19.70_-048.01 LATLON - 100 / 30 -19.69612 / -48.00862 4 / 4 nm
-19.64_-048.02 LATLON - 100 / 30 -19.63927 / -48.02028 3 / 7 nm
-19.36_-048.13 LATLON - 100 / 30 -19.35506 / -48.13157 18 / 26 nm
-19.07_-048.24 LATLON - 100 / 30 -19.07086 / -48.24287 18 / 44 nm
-19.02_-048.26 LATLON - 100 / 30 -19.01563 / -48.26124 3 / 47 nm
-18.96_-048.26 LATLON - 100 / 30 -18.95779 / -48.25851 3 / 51 nm
O SBUL APT - 0 / 0 -18.89096 / -48.22916 4 / 55 nm

Altitude Profile

Advertisement - Login to hide

SBUR

Details ICAO SBUR (UBA)
Name Uberaba
Region Brazil
Timezone America/Sao_Paulo (UTC-3.0)
Stats Elevation 2,654 ft / 809 m (AMSL)
Location -19.765000° -47.964800°
Runways 1
Magnetic Variation 21.688° W

METAR

SBUR 130100Z 05004KT CAVOK 22/10 Q1019

Decode

TAF

TAF SBUR 122130Z 1300/1312 13005KT CAVOK TN18/1308Z TX25/1311Z TEMPO 1300/1304 00000KT BECMG 1307/1309 05004KT RMK PGD

Decode

Departure Runways

ID Width Length Bearing (true/mag) Surface Threshold Overrun Markings Lighting
17 148 ft / 45 m 5,791 ft / 1,765 m 149.07° / 170.76° ASPHALT 0 ft / 0 m 0 ft / 0 m APP EDGE THRESHOLD
35 148 ft / 45 m 5,791 ft / 1,765 m 329.07° / 350.76° ASPHALT 0 ft / 0 m 0 ft / 0 m APP EDGE THRESHOLD

SBUL

Details ICAO SBUL (UDI)
Name Uberlandia
Region Brazil
Timezone America/Sao_Paulo (UTC-3.0)
Stats Elevation 3,094 ft / 943 m (AMSL)
Location -18.883500° -48.225900°
Runways 1
Magnetic Variation 21.656° W

METAR

SBUL 130100Z 15008KT CAVOK 21/10 Q1020

Decode

TAF

TAF SBUL 122130Z 1300/1312 14004KT CAVOK TN18/1308Z TX23/1311Z TEMPO 1300/1304 00000KT RMK PGD

Decode

Destination Runways

ID Width Length Bearing (true/mag) Surface Threshold Overrun Markings Lighting
04 148 ft / 45 m 6,920 ft / 2,109 m 22.57° / 44.23° ASPHALT 0 ft / 0 m 0 ft / 0 m PREC-APP EDGE THRESHOLD
22 148 ft / 45 m 6,920 ft / 2,109 m 202.57° / 224.23° ASPHALT 0 ft / 0 m 0 ft / 0 m PREC-APP EDGE THRESHOLD

Approach Navaids

Runway Type Ident Frequency Range Bearing (true/mag) Slope Elevation
04 GS IUB 109.30 MHz 10 nm / 19 km 22.57° / 44.23 ° 3.00° 3,094 ft / 943 m (AMSL)
04 LOC-ILS IUB 109.30 MHz 18 nm / 33 km 22.57° / 44.23 ° - 3,094 ft / 943 m (AMSL)

Popular Alternatives